createdAt,value
2019-03-05T00:01:02.840Z,37.70
2019-03-05T00:03:31.100Z,37.70
2019-03-05T00:05:59.373Z,37.70
2019-03-05T00:08:27.696Z,37.70
2019-03-05T00:10:55.965Z,37.70
2019-03-05T00:13:24.490Z,37.70
2019-03-05T00:15:53.423Z,37.80
2019-03-05T00:18:21.664Z,37.80
2019-03-05T00:20:49.937Z,37.90
2019-03-05T00:23:37.505Z,37.80
2019-03-05T00:26:05.772Z,37.90
2019-03-05T00:28:53.754Z,37.90
2019-03-05T00:31:25.511Z,38.00
2019-03-05T00:34:26.785Z,38.00
2019-03-05T00:37:01.165Z,38.00
2019-03-05T00:39:38.240Z,38.00
2019-03-05T00:42:26.064Z,38.10
2019-03-05T00:45:03.381Z,38.10
2019-03-05T00:47:43.500Z,38.10
2019-03-05T00:50:29.818Z,38.10
2019-03-05T00:53:01.349Z,38.10
2019-03-05T00:55:49.767Z,38.10
2019-03-05T00:58:20.825Z,38.10
2019-03-05T01:01:07.178Z,38.10
2019-03-05T01:03:44.312Z,38.10
2019-03-05T01:06:21.470Z,38.00
2019-03-05T01:08:49.709Z,38.10
2019-03-05T01:11:18.138Z,38.10
2019-03-05T01:13:46.430Z,38.10
2019-03-05T01:16:16.366Z,38.10
2019-03-05T01:18:44.629Z,38.10
2019-03-05T01:21:12.903Z,38.10
2019-03-05T01:23:41.165Z,38.10
2019-03-05T01:26:09.401Z,38.10
2019-03-05T01:28:37.669Z,38.10
2019-03-05T01:31:10.256Z,38.10
2019-03-05T01:33:40.159Z,38.10
2019-03-05T01:36:10.053Z,38.10
2019-03-05T01:38:45.848Z,38.10
2019-03-05T01:41:14.186Z,38.10
2019-03-05T01:43:42.434Z,38.20
2019-03-05T01:46:10.933Z,38.20
2019-03-05T01:48:39.183Z,38.10
2019-03-05T01:51:07.452Z,38.20
2019-03-05T01:53:35.697Z,38.10
2019-03-05T01:56:04.002Z,38.20
2019-03-05T01:58:32.309Z,38.20
2019-03-05T02:01:00.564Z,38.20
2019-03-05T02:03:29.064Z,38.20
2019-03-05T02:05:57.586Z,38.20
2019-03-05T02:08:25.857Z,38.20
2019-03-05T02:10:54.096Z,38.10
2019-03-05T02:13:22.365Z,38.20
2019-03-05T02:15:50.631Z,38.20
2019-03-05T02:18:20.240Z,38.20
2019-03-05T02:20:48.819Z,38.20
2019-03-05T02:23:32.005Z,38.20
2019-03-05T02:26:03.568Z,38.20
2019-03-05T02:28:59.177Z,38.30
2019-03-05T02:31:33.390Z,38.30
2019-03-05T02:34:16.839Z,38.30
2019-03-05T02:37:00.067Z,38.40
2019-03-05T02:39:40.689Z,38.40
2019-03-05T02:42:17.991Z,38.40
2019-03-05T02:45:22.733Z,38.40
2019-03-05T02:48:08.781Z,38.50
2019-03-05T02:50:55.197Z,38.50
2019-03-05T02:53:42.881Z,38.50
2019-03-05T02:56:37.021Z,38.50
2019-03-05T02:59:04.401Z,38.50
2019-03-05T03:01:43.280Z,38.60
2019-03-05T03:04:19.378Z,38.60
2019-03-05T03:06:47.641Z,38.50
2019-03-05T03:09:30.878Z,38.60
2019-03-05T03:11:59.118Z,38.60
2019-03-05T03:14:27.606Z,38.60
2019-03-05T03:16:55.874Z,38.60
2019-03-05T03:19:24.116Z,38.60
2019-03-05T03:21:52.410Z,38.60
2019-03-05T03:24:20.716Z,38.60
2019-03-05T03:26:49.057Z,38.70
2019-03-05T03:29:17.387Z,38.60
2019-03-05T03:31:45.879Z,38.70
2019-03-05T03:34:14.461Z,38.70
2019-03-05T03:36:42.710Z,38.70
2019-03-05T03:39:10.982Z,38.70
2019-03-05T03:41:39.225Z,38.80
2019-03-05T03:44:07.483Z,38.80
2019-03-05T03:46:35.974Z,38.80
2019-03-05T03:49:04.473Z,38.80
2019-03-05T03:51:32.755Z,38.80
2019-03-05T03:54:01.023Z,38.80
2019-03-05T03:56:29.266Z,38.80
2019-03-05T03:58:57.549Z,38.80
2019-03-05T04:01:25.803Z,38.80
2019-03-05T04:03:54.050Z,38.80
2019-03-05T04:06:22.315Z,39.50
2019-03-05T04:08:50.822Z,38.90
2019-03-05T04:11:19.334Z,38.90
2019-03-05T04:13:47.620Z,38.90
2019-03-05T04:16:15.854Z,39.00
2019-03-05T04:18:44.398Z,39.00
2019-03-05T04:21:12.687Z,38.90
2019-03-05T04:23:40.957Z,39.00
2019-03-05T04:26:09.237Z,39.00
2019-03-05T04:28:37.753Z,39.00
2019-03-05T04:31:06.028Z,39.00
2019-03-05T04:33:34.261Z,39.00
2019-03-05T04:36:02.529Z,39.00
2019-03-05T04:38:30.773Z,39.00
2019-03-05T04:40:59.069Z,38.90
2019-03-05T04:43:27.386Z,38.90
2019-03-05T04:45:57.277Z,38.90
2019-03-05T04:48:25.549Z,38.90
2019-03-05T04:51:01.141Z,38.90
2019-03-05T04:53:29.403Z,38.90
2019-03-05T04:55:57.678Z,38.90
2019-03-05T04:58:25.933Z,38.90
2019-03-05T05:00:54.201Z,38.90
2019-03-05T05:03:22.441Z,38.90
2019-03-05T05:05:50.709Z,38.90
2019-03-05T05:08:18.960Z,38.90
2019-03-05T05:10:47.217Z,38.90
2019-03-05T05:13:15.714Z,39.00
2019-03-05T05:15:43.981Z,39.00
2019-03-05T05:18:12.260Z,39.00
2019-03-05T05:20:40.585Z,39.00
2019-03-05T05:23:08.845Z,38.90
2019-03-05T05:25:37.136Z,39.00
2019-03-05T05:28:05.381Z,39.00
2019-03-05T05:30:34.793Z,39.00
2019-03-05T05:33:03.213Z,39.00
2019-03-05T05:35:31.734Z,39.00
2019-03-05T05:37:59.977Z,39.00
2019-03-05T05:40:33.885Z,39.00
2019-03-05T05:43:02.373Z,39.00
2019-03-05T05:45:39.851Z,39.00
2019-03-05T05:48:08.118Z,39.00
2019-03-05T05:50:36.385Z,39.00
2019-03-05T05:53:04.918Z,39.00
2019-03-05T05:55:33.166Z,39.00
2019-03-05T05:58:01.649Z,39.00
2019-03-05T06:00:30.348Z,39.00
2019-03-05T06:02:58.593Z,39.00
2019-03-05T06:05:26.861Z,39.00
2019-03-05T06:07:55.113Z,39.00
2019-03-05T06:10:23.373Z,39.60
2019-03-05T06:12:51.644Z,39.00
2019-03-05T06:15:20.129Z,39.00
2019-03-05T06:17:48.393Z,39.00
2019-03-05T06:20:17.194Z,39.00
2019-03-05T06:22:45.480Z,39.00
2019-03-05T06:25:14.604Z,39.00
2019-03-05T06:27:42.889Z,39.00
2019-03-05T06:30:16.439Z,39.00
2019-03-05T06:32:44.727Z,39.30
2019-03-05T06:35:12.993Z,39.00
2019-03-05T06:37:41.522Z,39.00
2019-03-05T06:40:27.157Z,39.00
2019-03-05T06:42:55.442Z,39.00
2019-03-05T06:45:23.946Z,39.00
2019-03-05T06:47:52.234Z,39.00
2019-03-05T06:50:24.285Z,39.00
2019-03-05T06:52:52.808Z,39.00
2019-03-05T06:55:21.067Z,39.00
2019-03-05T06:57:49.324Z,39.00
2019-03-05T07:00:38.701Z,39.00
2019-03-05T07:03:09.510Z,39.10
2019-03-05T07:06:13.909Z,39.10
2019-03-05T07:08:45.913Z,39.10
2019-03-05T07:11:21.418Z,39.10
2019-03-05T07:13:51.657Z,39.10
2019-03-05T07:16:41.480Z,39.00
2019-03-05T07:19:09.899Z,39.10
2019-03-05T07:21:56.125Z,39.10
2019-03-05T07:24:44.191Z,39.10
2019-03-05T07:27:13.433Z,39.10
2019-03-05T07:29:41.692Z,39.00
2019-03-05T07:32:10.194Z,39.10
2019-03-05T07:34:40.078Z,39.20
2019-03-05T07:37:09.118Z,39.10
2019-03-05T07:39:37.365Z,39.00
2019-03-05T07:42:05.606Z,39.10
2019-03-05T07:44:33.857Z,39.10
2019-03-05T07:47:02.118Z,38.90
2019-03-05T07:49:30.382Z,38.90
2019-03-05T07:51:58.658Z,38.90
2019-03-05T07:54:26.908Z,38.90
2019-03-05T07:56:55.208Z,38.80
2019-03-05T07:59:23.485Z,38.80
2019-03-05T08:01:51.810Z,38.70
2019-03-05T08:04:20.150Z,38.80
2019-03-05T08:06:48.483Z,38.80
2019-03-05T08:09:30.788Z,38.80
2019-03-05T08:12:14.061Z,38.70
2019-03-05T08:14:54.774Z,38.70
2019-03-05T08:17:23.781Z,38.70
2019-03-05T08:19:52.045Z,38.80
2019-03-05T08:22:20.323Z,38.90
2019-03-05T08:24:48.581Z,39.00
2019-03-05T08:27:16.853Z,39.10
2019-03-05T08:29:45.146Z,39.20
2019-03-05T08:32:13.411Z,39.10
2019-03-05T08:34:41.973Z,39.10
2019-03-05T08:37:10.233Z,39.00
2019-03-05T08:39:38.727Z,39.00
2019-03-05T08:42:06.989Z,39.00
2019-03-05T08:44:35.233Z,38.90
2019-03-05T08:47:03.726Z,38.80
2019-03-05T08:49:31.999Z,38.80
2019-03-05T08:52:00.263Z,38.90
2019-03-05T08:54:28.502Z,38.90
2019-03-05T08:56:56.763Z,38.90
2019-03-05T08:59:25.017Z,38.80
2019-03-05T09:01:53.281Z,38.80
2019-03-05T09:04:21.525Z,38.80
2019-03-05T09:06:49.953Z,38.80
2019-03-05T09:09:18.197Z,38.80
2019-03-05T09:11:46.702Z,38.70
2019-03-05T09:14:14.941Z,38.80
2019-03-05T09:16:43.204Z,38.70
2019-03-05T09:19:11.461Z,38.70
2019-03-05T09:21:39.749Z,38.60
2019-03-05T09:24:07.997Z,38.60
2019-03-05T09:26:36.304Z,38.60
2019-03-05T09:29:04.597Z,38.80
2019-03-05T09:31:32.849Z,38.70
2019-03-05T09:34:01.122Z,38.60
2019-03-05T09:36:29.369Z,38.60
2019-03-05T09:38:57.632Z,38.70
2019-03-05T09:41:25.881Z,38.80
2019-03-05T09:43:54.182Z,38.90
2019-03-05T09:46:22.417Z,38.80
2019-03-05T09:48:50.684Z,38.60
2019-03-05T09:51:18.925Z,38.70
2019-03-05T09:53:47.230Z,38.80
2019-03-05T09:56:15.846Z,38.90
2019-03-05T09:58:44.088Z,38.80
2019-03-05T10:01:12.433Z,38.90
2019-03-05T10:03:40.926Z,39.00
2019-03-05T10:06:09.225Z,39.10
2019-03-05T10:08:37.518Z,39.00
2019-03-05T10:11:06.058Z,38.90
2019-03-05T10:13:34.301Z,39.00
2019-03-05T10:16:02.562Z,39.00
2019-03-05T10:18:30.834Z,39.00
2019-03-05T10:20:59.079Z,39.00
2019-03-05T10:23:27.345Z,39.00
2019-03-05T10:25:55.598Z,39.00
2019-03-05T10:28:23.857Z,39.00
2019-03-05T10:30:52.197Z,39.00
2019-03-05T10:33:20.473Z,38.90
2019-03-05T10:35:49.034Z,38.90
2019-03-05T10:38:17.301Z,39.00
2019-03-05T10:40:51.447Z,39.00
2019-03-05T10:43:19.713Z,38.80
2019-03-05T10:45:48.800Z,38.90
2019-03-05T10:48:18.906Z,39.00
2019-03-05T10:50:47.442Z,39.00
2019-03-05T10:53:15.729Z,39.00
2019-03-05T10:55:43.980Z,38.90
2019-03-05T10:58:13.359Z,39.00
2019-03-05T11:00:56.133Z,39.00
2019-03-05T11:03:25.360Z,39.00
2019-03-05T11:05:53.633Z,39.00
2019-03-05T11:08:24.558Z,39.00
2019-03-05T11:10:53.038Z,38.90
2019-03-05T11:13:21.318Z,38.80
2019-03-05T11:15:52.889Z,38.80
2019-03-05T11:18:29.008Z,38.70
2019-03-05T11:20:51.214Z,38.70
2019-03-05T11:23:19.484Z,38.60
2019-03-05T11:25:47.726Z,38.60
2019-03-05T11:28:15.996Z,38.50
2019-03-05T11:30:44.485Z,38.40
2019-03-05T11:33:12.749Z,38.40
2019-03-05T11:35:41.073Z,38.30
2019-03-05T11:38:09.319Z,38.20
2019-03-05T11:40:37.594Z,38.20
2019-03-05T11:43:08.325Z,38.10
2019-03-05T11:45:36.606Z,38.00
2019-03-05T11:48:04.849Z,38.00
2019-03-05T11:50:33.366Z,38.00
2019-03-05T11:53:01.614Z,37.90
2019-03-05T11:55:30.151Z,37.90
2019-03-05T11:57:58.656Z,37.80
2019-03-05T12:00:33.307Z,37.70
2019-03-05T12:03:01.813Z,37.60
2019-03-05T12:05:30.054Z,37.50
2019-03-05T12:07:58.409Z,37.50
2019-03-05T12:10:26.820Z,37.50
2019-03-05T12:12:55.078Z,37.50
2019-03-05T12:15:25.438Z,37.50
2019-03-05T12:17:53.697Z,37.50
2019-03-05T12:20:21.941Z,37.50
2019-03-05T12:22:50.219Z,37.50
2019-03-05T12:25:20.583Z,37.40
2019-03-05T12:27:49.968Z,37.40
2019-03-05T12:30:29.740Z,37.50
2019-03-05T12:32:57.999Z,37.50
2019-03-05T12:35:26.268Z,37.40
2019-03-05T12:37:54.529Z,37.40
2019-03-05T12:40:23.919Z,37.50
2019-03-05T12:42:52.241Z,37.60
2019-03-05T12:45:21.391Z,38.00
2019-03-05T12:47:49.690Z,37.90
2019-03-05T12:50:29.413Z,38.00
2019-03-05T12:52:57.720Z,37.90
2019-03-05T12:55:26.232Z,38.00
2019-03-05T12:57:54.535Z,38.10
2019-03-05T13:00:27.462Z,38.00
2019-03-05T13:02:56.324Z,37.70
2019-03-05T13:05:24.813Z,37.60
2019-03-05T13:07:56.504Z,37.60
2019-03-05T13:10:24.325Z,37.50
2019-03-05T13:12:52.573Z,37.60
2019-03-05T13:15:23.854Z,37.70
2019-03-05T13:17:52.829Z,37.70
2019-03-05T13:20:22.623Z,37.70
2019-03-05T13:22:51.247Z,37.60
2019-03-05T13:25:24.121Z,37.50
2019-03-05T13:27:52.582Z,37.60
2019-03-05T13:30:25.693Z,37.60
2019-03-05T13:32:54.122Z,37.60
2019-03-05T13:35:25.434Z,37.70
2019-03-05T13:37:58.806Z,37.80
2019-03-05T13:40:30.127Z,37.90
2019-03-05T13:42:58.438Z,37.80
2019-03-05T13:45:26.918Z,37.80
2019-03-05T13:48:19.733Z,37.80
2019-03-05T13:51:04.775Z,37.90
2019-03-05T13:53:36.556Z,38.10
2019-03-05T13:56:12.037Z,38.10
2019-03-05T13:58:58.342Z,38.10
2019-03-05T14:01:28.454Z,38.10
2019-03-05T14:04:02.734Z,38.10
2019-03-05T14:06:50.522Z,38.10
2019-03-05T14:09:19.066Z,38.10
2019-03-05T14:11:48.709Z,38.00
2019-03-05T14:14:22.187Z,37.90
2019-03-05T14:16:52.152Z,37.80
2019-03-05T14:19:20.780Z,37.80
2019-03-05T14:21:49.305Z,38.00
2019-03-05T14:24:17.578Z,38.00
2019-03-05T14:26:45.885Z,38.20
2019-03-05T14:29:14.188Z,38.20
2019-03-05T14:31:42.469Z,38.20
2019-03-05T14:34:10.734Z,38.30
2019-03-05T14:36:38.995Z,38.50
2019-03-05T14:39:23.253Z,38.50
2019-03-05T14:41:51.581Z,38.70
2019-03-05T14:44:19.881Z,38.90
2019-03-05T14:46:53.257Z,39.00
2019-03-05T14:49:21.557Z,39.20
2019-03-05T14:51:49.904Z,39.40
2019-03-05T14:54:18.438Z,39.50
2019-03-05T14:56:46.726Z,39.50
2019-03-05T14:59:15.310Z,39.90
2019-03-05T15:01:43.876Z,40.10
2019-03-05T15:04:12.173Z,40.20
2019-03-05T15:06:40.489Z,40.20
2019-03-05T15:09:08.835Z,40.30
2019-03-05T15:11:37.153Z,40.50
2019-03-05T15:14:05.426Z,40.70
2019-03-05T15:16:33.676Z,40.70
2019-03-05T15:19:02.190Z,40.80
2019-03-05T15:21:30.562Z,40.90
2019-03-05T15:23:58.901Z,40.70
2019-03-05T15:26:27.211Z,40.70
2019-03-05T15:28:56.638Z,40.70
2019-03-05T15:31:25.180Z,40.90
2019-03-05T15:33:53.497Z,41.10
2019-03-05T15:36:24.021Z,41.20
2019-03-05T15:38:52.030Z,41.30
2019-03-05T15:41:20.352Z,41.90
2019-03-05T15:43:48.668Z,42.00
2019-03-05T15:46:16.918Z,42.00
2019-03-05T15:48:45.178Z,41.00
2019-03-05T15:51:13.693Z,41.30
2019-03-05T15:53:42.014Z,40.70
2019-03-05T15:56:10.331Z,41.10
2019-03-05T15:58:38.595Z,40.90
2019-03-05T16:01:09.635Z,40.50
2019-03-05T16:03:37.118Z,40.90
2019-03-05T16:06:05.421Z,41.50
2019-03-05T16:08:33.676Z,42.00
2019-03-05T16:11:02.242Z,42.20
2019-03-05T16:13:32.585Z,42.80
2019-03-05T16:16:00.793Z,43.30
2019-03-05T16:18:29.047Z,43.50
2019-03-05T16:20:58.264Z,43.60
2019-03-05T16:23:28.490Z,43.70
2019-03-05T16:25:57.717Z,44.00
2019-03-05T16:28:26.061Z,44.20
2019-03-05T16:31:02.066Z,44.30
2019-03-05T16:33:37.059Z,44.60
2019-03-05T16:36:25.434Z,44.60
2019-03-05T16:39:10.596Z,44.90
2019-03-05T16:41:40.566Z,45.20
2019-03-05T16:44:16.697Z,45.20
2019-03-05T16:46:58.721Z,45.20
2019-03-05T16:49:38.059Z,45.10
2019-03-05T16:52:13.704Z,45.20
2019-03-05T16:54:43.897Z,45.30
2019-03-05T16:57:13.809Z,45.40
2019-03-05T17:00:01.527Z,45.20
2019-03-05T17:02:40.404Z,45.30
2019-03-05T17:05:19.108Z,45.40
2019-03-05T17:07:49.025Z,46.00
2019-03-05T17:10:24.990Z,45.40
2019-03-05T17:12:53.281Z,45.50
2019-03-05T17:15:21.565Z,45.50
2019-03-05T17:17:50.119Z,45.50
2019-03-05T17:20:18.388Z,45.50
2019-03-05T17:22:46.653Z,45.60
2019-03-05T17:25:20.353Z,45.60
2019-03-05T17:27:48.891Z,45.70
2019-03-05T17:30:17.659Z,45.70
2019-03-05T17:32:46.354Z,45.80
2019-03-05T17:35:15.379Z,45.80
2019-03-05T17:37:43.938Z,45.90
2019-03-05T17:40:13.077Z,46.00
2019-03-05T17:42:41.341Z,45.80
2019-03-05T17:45:21.393Z,45.80
2019-03-05T17:47:49.953Z,45.80
2019-03-05T17:50:18.224Z,45.90
2019-03-05T17:52:46.568Z,46.50
2019-03-05T17:55:24.559Z,46.00
2019-03-05T17:57:47.404Z,45.90
2019-03-05T18:00:31.562Z,45.90
2019-03-05T18:02:59.950Z,45.90
2019-03-05T18:05:28.293Z,45.90
2019-03-05T18:07:56.584Z,45.90
2019-03-05T18:10:25.082Z,45.90
2019-03-05T18:12:53.358Z,46.10
2019-03-05T18:15:21.630Z,45.90
2019-03-05T18:17:52.369Z,46.10
2019-03-05T18:20:23.391Z,45.90
2019-03-05T18:22:51.958Z,45.80
2019-03-05T18:25:20.286Z,45.70
2019-03-05T18:27:48.548Z,45.50
2019-03-05T18:30:30.651Z,45.40
2019-03-05T18:32:59.350Z,45.40
2019-03-05T18:35:27.588Z,45.40
2019-03-05T18:37:55.878Z,45.40
2019-03-05T18:40:24.413Z,45.40
2019-03-05T18:42:52.988Z,45.30
2019-03-05T18:45:35.389Z,45.30
2019-03-05T18:48:03.923Z,45.30
2019-03-05T18:50:32.198Z,45.20
2019-03-05T18:53:01.836Z,45.20
2019-03-05T18:55:30.392Z,45.20
2019-03-05T18:57:58.661Z,45.20
2019-03-05T19:00:28.252Z,45.00
2019-03-05T19:02:59.774Z,45.00
2019-03-05T19:05:28.306Z,44.90
2019-03-05T19:07:56.573Z,44.80
2019-03-05T19:10:25.077Z,44.80
2019-03-05T19:12:53.366Z,44.60
2019-03-05T19:15:25.816Z,44.60
2019-03-05T19:17:54.085Z,44.60
2019-03-05T19:20:25.601Z,44.50
2019-03-05T19:22:53.909Z,44.40
2019-03-05T19:25:25.450Z,44.30
2019-03-05T19:27:53.712Z,44.30
2019-03-05T19:30:24.899Z,44.20
2019-03-05T19:32:53.237Z,44.10
2019-03-05T19:35:21.495Z,44.00
2019-03-05T19:37:49.764Z,44.00
2019-03-05T19:40:32.777Z,44.00
2019-03-05T19:43:01.047Z,44.10
2019-03-05T19:45:29.289Z,43.80
2019-03-05T19:47:57.554Z,43.80
2019-03-05T19:50:25.845Z,43.70
2019-03-05T19:52:54.109Z,43.60
2019-03-05T19:55:23.815Z,43.80
2019-03-05T19:57:53.710Z,43.70
2019-03-05T20:00:27.836Z,43.60
2019-03-05T20:02:56.110Z,43.70
2019-03-05T20:05:24.561Z,43.60
2019-03-05T20:07:52.809Z,43.60
2019-03-05T20:10:26.845Z,43.70
2019-03-05T20:12:55.437Z,43.60
2019-03-05T20:15:23.680Z,43.60
2019-03-05T20:17:58.647Z,43.60
2019-03-05T20:20:21.912Z,43.60
2019-03-05T20:22:50.193Z,43.50
2019-03-05T20:25:20.341Z,43.50
2019-03-05T20:27:50.358Z,43.50
2019-03-05T20:30:22.181Z,43.40
2019-03-05T20:32:50.677Z,43.50
2019-03-05T20:35:19.110Z,43.40
2019-03-05T20:37:48.214Z,43.50
2019-03-05T20:40:25.500Z,43.50
2019-03-05T20:42:53.774Z,43.60
2019-03-05T20:45:36.901Z,43.60
2019-03-05T20:48:05.492Z,43.50
2019-03-05T20:50:34.181Z,43.60
2019-03-05T20:53:02.529Z,43.60
2019-03-05T20:55:30.877Z,44.30
2019-03-05T20:57:59.126Z,43.60
2019-03-05T21:00:34.641Z,43.60
2019-03-05T21:03:04.655Z,43.60
2019-03-05T21:05:35.133Z,43.70
2019-03-05T21:08:03.482Z,43.80
2019-03-05T21:10:31.738Z,43.80
2019-03-05T21:13:00.054Z,43.90
2019-03-05T21:15:28.798Z,44.00
2019-03-05T21:17:57.311Z,44.00
2019-03-05T21:20:25.898Z,44.30
2019-03-05T21:22:54.199Z,44.20
2019-03-05T21:25:22.471Z,44.10
2019-03-05T21:27:50.712Z,44.20
2019-03-05T21:30:24.218Z,44.10
2019-03-05T21:32:52.493Z,44.10
2019-03-05T21:35:20.991Z,44.10
2019-03-05T21:37:49.231Z,44.10
2019-03-05T21:40:23.388Z,44.10
2019-03-05T21:42:51.797Z,44.10
2019-03-05T21:45:23.414Z,44.10
2019-03-05T21:47:51.661Z,44.10
2019-03-05T21:50:20.182Z,44.10
2019-03-05T21:52:48.453Z,44.10
2019-03-05T21:55:16.869Z,44.10
2019-03-05T21:57:45.183Z,44.10
2019-03-05T22:00:22.632Z,44.10
2019-03-05T22:02:50.956Z,44.00
2019-03-05T22:05:19.219Z,44.00
2019-03-05T22:07:47.463Z,44.00
2019-03-05T22:10:20.812Z,43.90
2019-03-05T22:12:49.603Z,43.90
2019-03-05T22:15:19.486Z,43.90
2019-03-05T22:17:47.896Z,44.00
2019-03-05T22:20:17.873Z,43.90
2019-03-05T22:22:46.125Z,43.90
2019-03-05T22:25:19.014Z,44.00
2019-03-05T22:27:47.254Z,44.00
2019-03-05T22:30:29.620Z,44.00
2019-03-05T22:32:57.876Z,44.00
2019-03-05T22:35:26.295Z,44.10
2019-03-05T22:37:54.574Z,44.10
2019-03-05T22:40:26.541Z,44.20
2019-03-05T22:42:54.793Z,44.20
2019-03-05T22:45:28.349Z,44.20
2019-03-05T22:47:56.616Z,44.20
2019-03-05T22:50:24.865Z,44.20
2019-03-05T22:52:53.121Z,44.20
2019-03-05T22:55:21.456Z,44.30
2019-03-05T22:57:49.714Z,44.30
2019-03-05T23:00:25.793Z,44.20
2019-03-05T23:02:54.049Z,44.20
2019-03-05T23:05:22.313Z,44.20
2019-03-05T23:07:50.816Z,44.20
2019-03-05T23:10:19.445Z,44.10
2019-03-05T23:12:47.705Z,44.10
2019-03-05T23:15:16.620Z,44.10
2019-03-05T23:17:45.441Z,44.10
2019-03-05T23:20:15.809Z,44.10
2019-03-05T23:22:44.426Z,44.10
2019-03-05T23:25:16.845Z,44.10
2019-03-05T23:27:45.189Z,44.10
2019-03-05T23:30:21.340Z,44.10
2019-03-05T23:32:50.317Z,44.10
2019-03-05T23:35:18.582Z,44.10
2019-03-05T23:37:46.832Z,44.10
2019-03-05T23:40:17.736Z,44.00
2019-03-05T23:42:46.009Z,44.10
2019-03-05T23:45:18.113Z,44.00
2019-03-05T23:47:46.388Z,44.00
2019-03-05T23:50:18.019Z,44.00
2019-03-05T23:52:46.277Z,44.00
2019-03-05T23:55:14.992Z,44.00
2019-03-05T23:57:43.531Z,44.00
